sensor_id;sensor_type;location;lat;lon;timestamp;P1;durP1;ratioP1;P2;durP2;ratioP2
79261;SDS011;68699;48.220;16.358;2024-03-07T00:00:05;10.77;;;9.67;;
79261;SDS011;68699;48.220;16.358;2024-03-07T00:02:40;10.93;;;9.50;;
79261;SDS011;68699;48.220;16.358;2024-03-07T00:05:06;10.73;;;9.63;;
79261;SDS011;68699;48.220;16.358;2024-03-07T00:07:34;10.90;;;9.80;;
79261;SDS011;68699;48.220;16.358;2024-03-07T00:10:01;11.13;;;10.03;;
79261;SDS011;68699;48.220;16.358;2024-03-07T00:12:29;11.40;;;10.20;;
79261;SDS011;68699;48.220;16.358;2024-03-07T00:14:55;10.70;;;9.60;;
79261;SDS011;68699;48.220;16.358;2024-03-07T00:17:21;10.50;;;9.33;;
79261;SDS011;68699;48.220;16.358;2024-03-07T00:19:48;10.17;;;9.17;;
79261;SDS011;68699;48.220;16.358;2024-03-07T00:22:14;10.97;;;9.77;;
79261;SDS011;68699;48.220;16.358;2024-03-07T00:24:43;10.80;;;9.70;;
79261;SDS011;68699;48.220;16.358;2024-03-07T00:27:13;11.90;;;10.60;;
79261;SDS011;68699;48.220;16.358;2024-03-07T00:29:42;10.17;;;9.17;;
79261;SDS011;68699;48.220;16.358;2024-03-07T00:32:09;11.50;;;10.30;;
79261;SDS011;68699;48.220;16.358;2024-03-07T00:34:35;10.53;;;9.43;;
79261;SDS011;68699;48.220;16.358;2024-03-07T00:37:01;11.60;;;10.40;;
79261;SDS011;68699;48.220;16.358;2024-03-07T00:39:27;10.93;;;9.33;;
79261;SDS011;68699;48.220;16.358;2024-03-07T00:41:53;11.40;;;9.93;;
79261;SDS011;68699;48.220;16.358;2024-03-07T00:44:20;10.77;;;9.53;;
79261;SDS011;68699;48.220;16.358;2024-03-07T00:46:46;10.97;;;9.87;;
79261;SDS011;68699;48.220;16.358;2024-03-07T00:49:12;10.53;;;9.43;;
79261;SDS011;68699;48.220;16.358;2024-03-07T00:51:38;10.30;;;9.30;;
79261;SDS011;68699;48.220;16.358;2024-03-07T00:54:05;10.73;;;9.63;;
79261;SDS011;68699;48.220;16.358;2024-03-07T00:56:32;10.13;;;8.93;;
79261;SDS011;68699;48.220;16.358;2024-03-07T00:58:58;10.37;;;9.13;;
79261;SDS011;68699;48.220;16.358;2024-03-07T01:01:24;10.50;;;9.20;;
79261;SDS011;68699;48.220;16.358;2024-03-07T01:03:51;11.97;;;9.53;;
79261;SDS011;68699;48.220;16.358;2024-03-07T01:06:17;9.53;;;8.50;;
79261;SDS011;68699;48.220;16.358;2024-03-07T01:08:45;9.60;;;8.60;;
79261;SDS011;68699;48.220;16.358;2024-03-07T01:11:11;10.47;;;8.67;;
79261;SDS011;68699;48.220;16.358;2024-03-07T01:13:38;10.80;;;9.03;;
79261;SDS011;68699;48.220;16.358;2024-03-07T01:16:04;9.63;;;8.63;;
79261;SDS011;68699;48.220;16.358;2024-03-07T01:18:31;10.47;;;8.80;;
79261;SDS011;68699;48.220;16.358;2024-03-07T01:21:00;10.33;;;8.73;;
79261;SDS011;68699;48.220;16.358;2024-03-07T01:23:27;11.60;;;9.30;;
79261;SDS011;68699;48.220;16.358;2024-03-07T01:25:54;9.57;;;8.23;;
79261;SDS011;68699;48.220;16.358;2024-03-07T01:28:22;13.83;;;9.00;;
79261;SDS011;68699;48.220;16.358;2024-03-07T01:30:50;9.60;;;8.60;;
79261;SDS011;68699;48.220;16.358;2024-03-07T01:33:18;10.50;;;8.97;;
79261;SDS011;68699;48.220;16.358;2024-03-07T01:35:44;11.03;;;8.93;;
79261;SDS011;68699;48.220;16.358;2024-03-07T01:38:10;11.63;;;9.20;;
79261;SDS011;68699;48.220;16.358;2024-03-07T01:40:41;10.00;;;8.70;;
79261;SDS011;68699;48.220;16.358;2024-03-07T01:43:08;10.17;;;8.43;;
79261;SDS011;68699;48.220;16.358;2024-03-07T01:45:34;9.97;;;8.90;;
79261;SDS011;68699;48.220;16.358;2024-03-07T01:48:04;10.03;;;9.03;;
79261;SDS011;68699;48.220;16.358;2024-03-07T01:50:31;11.47;;;9.40;;
79261;SDS011;68699;48.220;16.358;2024-03-07T01:52:57;10.77;;;9.10;;
79261;SDS011;68699;48.220;16.358;2024-03-07T01:55:25;10.20;;;9.10;;
79261;SDS011;68699;48.220;16.358;2024-03-07T01:57:52;11.87;;;9.27;;
79261;SDS011;68699;48.220;16.358;2024-03-07T02:00:21;11.03;;;9.83;;
79261;SDS011;68699;48.220;16.358;2024-03-07T02:02:47;11.97;;;10.10;;
79261;SDS011;68699;48.220;16.358;2024-03-07T02:05:14;12.10;;;10.27;;
79261;SDS011;68699;48.220;16.358;2024-03-07T02:07:40;12.33;;;10.23;;
79261;SDS011;68699;48.220;16.358;2024-03-07T02:10:06;12.93;;;11.27;;
79261;SDS011;68699;48.220;16.358;2024-03-07T02:12:34;12.27;;;10.90;;
79261;SDS011;68699;48.220;16.358;2024-03-07T02:15:01;14.07;;;11.33;;
79261;SDS011;68699;48.220;16.358;2024-03-07T02:17:28;13.10;;;11.63;;
79261;SDS011;68699;48.220;16.358;2024-03-07T02:19:54;13.00;;;11.60;;
79261;SDS011;68699;48.220;16.358;2024-03-07T02:22:20;13.07;;;11.20;;
79261;SDS011;68699;48.220;16.358;2024-03-07T02:24:46;13.00;;;11.57;;
79261;SDS011;68699;48.220;16.358;2024-03-07T02:27:13;13.83;;;11.57;;
79261;SDS011;68699;48.220;16.358;2024-03-07T02:29:39;14.00;;;11.50;;
79261;SDS011;68699;48.220;16.358;2024-03-07T02:32:06;12.97;;;10.93;;
79261;SDS011;68699;48.220;16.358;2024-03-07T02:34:32;15.53;;;12.00;;
79261;SDS011;68699;48.220;16.358;2024-03-07T02:36:59;14.37;;;11.47;;
79261;SDS011;68699;48.220;16.358;2024-03-07T02:39:25;16.23;;;12.67;;
79261;SDS011;68699;48.220;16.358;2024-03-07T02:41:52;15.27;;;11.90;;
79261;SDS011;68699;48.220;16.358;2024-03-07T02:44:18;12.73;;;10.87;;
79261;SDS011;68699;48.220;16.358;2024-03-07T02:46:45;14.33;;;11.23;;
79261;SDS011;68699;48.220;16.358;2024-03-07T02:49:12;15.70;;;11.47;;
79261;SDS011;68699;48.220;16.358;2024-03-07T02:51:39;15.00;;;10.77;;
79261;SDS011;68699;48.220;16.358;2024-03-07T02:54:07;12.20;;;10.50;;
79261;SDS011;68699;48.220;16.358;2024-03-07T02:56:33;14.43;;;11.13;;
79261;SDS011;68699;48.220;16.358;2024-03-07T02:59:00;13.33;;;10.70;;
79261;SDS011;68699;48.220;16.358;2024-03-07T03:01:26;13.80;;;11.33;;
79261;SDS011;68699;48.220;16.358;2024-03-07T03:03:52;12.23;;;10.20;;
79261;SDS011;68699;48.220;16.358;2024-03-07T03:06:18;11.77;;;9.60;;
79261;SDS011;68699;48.220;16.358;2024-03-07T03:08:48;12.30;;;9.67;;
79261;SDS011;68699;48.220;16.358;2024-03-07T03:11:15;12.40;;;10.03;;
79261;SDS011;68699;48.220;16.358;2024-03-07T03:13:41;13.23;;;10.13;;
79261;SDS011;68699;48.220;16.358;2024-03-07T03:16:07;11.17;;;9.73;;
79261;SDS011;68699;48.220;16.358;2024-03-07T03:18:34;11.57;;;10.00;;
79261;SDS011;68699;48.220;16.358;2024-03-07T03:21:01;11.17;;;9.83;;
79261;SDS011;68699;48.220;16.358;2024-03-07T03:23:31;12.93;;;10.50;;
79261;SDS011;68699;48.220;16.358;2024-03-07T03:25:57;12.27;;;9.80;;
79261;SDS011;68699;48.220;16.358;2024-03-07T03:28:24;11.27;;;9.40;;
79261;SDS011;68699;48.220;16.358;2024-03-07T03:30:50;12.70;;;10.03;;
79261;SDS011;68699;48.220;16.358;2024-03-07T03:33:18;11.27;;;8.60;;
79261;SDS011;68699;48.220;16.358;2024-03-07T03:35:46;10.47;;;9.37;;
79261;SDS011;68699;48.220;16.358;2024-03-07T03:38:12;10.30;;;9.10;;
79261;SDS011;68699;48.220;16.358;2024-03-07T03:40:38;10.10;;;8.70;;
79261;SDS011;68699;48.220;16.358;2024-03-07T03:43:05;9.90;;;8.67;;
79261;SDS011;68699;48.220;16.358;2024-03-07T03:45:31;11.17;;;8.97;;
79261;SDS011;68699;48.220;16.358;2024-03-07T03:47:59;10.33;;;8.57;;
79261;SDS011;68699;48.220;16.358;2024-03-07T03:50:25;11.20;;;8.60;;
79261;SDS011;68699;48.220;16.358;2024-03-07T03:52:51;11.00;;;8.80;;
79261;SDS011;68699;48.220;16.358;2024-03-07T03:55:17;11.03;;;8.77;;
79261;SDS011;68699;48.220;16.358;2024-03-07T03:57:44;10.23;;;8.67;;
79261;SDS011;68699;48.220;16.358;2024-03-07T04:00:13;10.27;;;8.43;;
79261;SDS011;68699;48.220;16.358;2024-03-07T04:02:44;10.57;;;8.67;;
79261;SDS011;68699;48.220;16.358;2024-03-07T04:05:13;10.93;;;8.70;;
79261;SDS011;68699;48.220;16.358;2024-03-07T04:07:40;10.17;;;8.70;;
79261;SDS011;68699;48.220;16.358;2024-03-07T04:10:10;10.60;;;8.50;;
79261;SDS011;68699;48.220;16.358;2024-03-07T04:12:37;9.57;;;8.23;;
79261;SDS011;68699;48.220;16.358;2024-03-07T04:15:05;9.97;;;8.00;;
79261;SDS011;68699;48.220;16.358;2024-03-07T04:17:32;9.30;;;7.93;;
79261;SDS011;68699;48.220;16.358;2024-03-07T04:19:59;10.90;;;8.20;;
79261;SDS011;68699;48.220;16.358;2024-03-07T04:22:26;10.70;;;8.83;;
79261;SDS011;68699;48.220;16.358;2024-03-07T04:24:53;11.10;;;8.43;;
79261;SDS011;68699;48.220;16.358;2024-03-07T04:27:20;10.23;;;8.00;;
79261;SDS011;68699;48.220;16.358;2024-03-07T04:29:47;10.27;;;8.13;;
79261;SDS011;68699;48.220;16.358;2024-03-07T04:32:14;9.60;;;8.20;;
79261;SDS011;68699;48.220;16.358;2024-03-07T04:34:40;11.03;;;8.50;;
79261;SDS011;68699;48.220;16.358;2024-03-07T04:37:06;10.10;;;8.03;;
79261;SDS011;68699;48.220;16.358;2024-03-07T04:39:33;10.57;;;8.50;;
79261;SDS011;68699;48.220;16.358;2024-03-07T04:42:00;11.17;;;8.57;;
79261;SDS011;68699;48.220;16.358;2024-03-07T04:44:27;10.63;;;8.43;;
79261;SDS011;68699;48.220;16.358;2024-03-07T04:46:53;9.10;;;7.77;;
79261;SDS011;68699;48.220;16.358;2024-03-07T04:49:22;8.97;;;7.27;;
79261;SDS011;68699;48.220;16.358;2024-03-07T04:51:52;9.50;;;8.13;;
79261;SDS011;68699;48.220;16.358;2024-03-07T04:54:19;9.83;;;8.20;;
79261;SDS011;68699;48.220;16.358;2024-03-07T04:56:45;10.10;;;7.87;;
79261;SDS011;68699;48.220;16.358;2024-03-07T04:59:12;9.47;;;7.97;;
79261;SDS011;68699;48.220;16.358;2024-03-07T05:01:41;9.60;;;7.63;;
79261;SDS011;68699;48.220;16.358;2024-03-07T05:04:07;9.80;;;7.73;;
79261;SDS011;68699;48.220;16.358;2024-03-07T05:06:34;10.00;;;8.37;;
79261;SDS011;68699;48.220;16.358;2024-03-07T05:09:00;11.23;;;8.53;;
79261;SDS011;68699;48.220;16.358;2024-03-07T05:11:30;10.27;;;8.60;;
79261;SDS011;68699;48.220;16.358;2024-03-07T05:13:57;10.80;;;8.57;;
79261;SDS011;68699;48.220;16.358;2024-03-07T05:16:27;9.60;;;8.40;;
79261;SDS011;68699;48.220;16.358;2024-03-07T05:18:53;9.87;;;8.37;;
79261;SDS011;68699;48.220;16.358;2024-03-07T05:21:23;9.40;;;7.97;;
79261;SDS011;68699;48.220;16.358;2024-03-07T05:24:15;11.00;;;8.27;;
79261;SDS011;68699;48.220;16.358;2024-03-07T05:26:42;12.60;;;8.27;;
79261;SDS011;68699;48.220;16.358;2024-03-07T05:29:10;11.70;;;9.07;;
79261;SDS011;68699;48.220;16.358;2024-03-07T05:31:37;11.07;;;9.10;;
79261;SDS011;68699;48.220;16.358;2024-03-07T05:34:09;10.73;;;8.70;;
79261;SDS011;68699;48.220;16.358;2024-03-07T05:36:35;10.73;;;8.93;;
79261;SDS011;68699;48.220;16.358;2024-03-07T05:39:09;10.80;;;9.27;;
79261;SDS011;68699;48.220;16.358;2024-03-07T05:41:39;10.17;;;8.87;;
79261;SDS011;68699;48.220;16.358;2024-03-07T05:44:06;10.80;;;8.70;;
79261;SDS011;68699;48.220;16.358;2024-03-07T05:46:35;11.03;;;9.23;;
79261;SDS011;68699;48.220;16.358;2024-03-07T05:49:02;10.97;;;9.50;;
79261;SDS011;68699;48.220;16.358;2024-03-07T05:51:29;11.23;;;8.90;;
79261;SDS011;68699;48.220;16.358;2024-03-07T05:53:55;10.97;;;9.00;;
79261;SDS011;68699;48.220;16.358;2024-03-07T05:56:25;10.43;;;9.27;;
79261;SDS011;68699;48.220;16.358;2024-03-07T05:58:55;10.93;;;8.73;;
79261;SDS011;68699;48.220;16.358;2024-03-07T06:01:21;10.87;;;8.90;;
79261;SDS011;68699;48.220;16.358;2024-03-07T06:03:50;9.90;;;8.90;;
79261;SDS011;68699;48.220;16.358;2024-03-07T06:06:17;10.10;;;8.57;;
79261;SDS011;68699;48.220;16.358;2024-03-07T06:08:43;9.90;;;8.57;;
79261;SDS011;68699;48.220;16.358;2024-03-07T06:11:09;9.37;;;8.37;;
79261;SDS011;68699;48.220;16.358;2024-03-07T06:13:36;9.57;;;8.37;;
79261;SDS011;68699;48.220;16.358;2024-03-07T06:16:02;10.27;;;8.40;;
79261;SDS011;68699;48.220;16.358;2024-03-07T06:18:32;10.70;;;8.73;;
79261;SDS011;68699;48.220;16.358;2024-03-07T06:20:59;10.20;;;8.67;;
79261;SDS011;68699;48.220;16.358;2024-03-07T06:23:25;11.27;;;8.87;;
79261;SDS011;68699;48.220;16.358;2024-03-07T06:25:53;10.40;;;8.40;;
79261;SDS011;68699;48.220;16.358;2024-03-07T06:28:21;8.93;;;8.03;;
79261;SDS011;68699;48.220;16.358;2024-03-07T06:30:47;10.10;;;8.83;;
79261;SDS011;68699;48.220;16.358;2024-03-07T06:33:13;10.30;;;8.47;;
79261;SDS011;68699;48.220;16.358;2024-03-07T06:35:41;10.30;;;8.30;;
79261;SDS011;68699;48.220;16.358;2024-03-07T06:38:08;10.10;;;8.90;;
79261;SDS011;68699;48.220;16.358;2024-03-07T06:40:35;11.13;;;8.70;;
79261;SDS011;68699;48.220;16.358;2024-03-07T06:43:02;10.40;;;9.00;;
79261;SDS011;68699;48.220;16.358;2024-03-07T06:45:37;9.07;;;8.17;;
79261;SDS011;68699;48.220;16.358;2024-03-07T06:48:04;8.93;;;8.03;;
79261;SDS011;68699;48.220;16.358;2024-03-07T06:50:36;10.60;;;9.00;;
79261;SDS011;68699;48.220;16.358;2024-03-07T06:53:02;10.27;;;8.97;;
79261;SDS011;68699;48.220;16.358;2024-03-07T06:55:29;11.10;;;8.43;;
79261;SDS011;68699;48.220;16.358;2024-03-07T06:57:55;10.80;;;8.93;;
79261;SDS011;68699;48.220;16.358;2024-03-07T07:00:22;11.43;;;8.60;;
79261;SDS011;68699;48.220;16.358;2024-03-07T07:02:48;10.70;;;8.97;;
79261;SDS011;68699;48.220;16.358;2024-03-07T07:05:15;9.87;;;8.27;;
79261;SDS011;68699;48.220;16.358;2024-03-07T07:07:45;10.83;;;8.83;;
79261;SDS011;68699;48.220;16.358;2024-03-07T07:10:12;9.37;;;8.37;;
79261;SDS011;68699;48.220;16.358;2024-03-07T07:12:44;10.57;;;9.27;;
79261;SDS011;68699;48.220;16.358;2024-03-07T07:15:10;11.60;;;9.03;;
79261;SDS011;68699;48.220;16.358;2024-03-07T07:17:37;11.37;;;9.10;;
79261;SDS011;68699;48.220;16.358;2024-03-07T07:20:04;10.77;;;8.97;;
79261;SDS011;68699;48.220;16.358;2024-03-07T07:22:43;10.23;;;9.13;;
79261;SDS011;68699;48.220;16.358;2024-03-07T07:25:11;9.43;;;8.47;;
79261;SDS011;68699;48.220;16.358;2024-03-07T07:27:44;11.70;;;9.73;;
79261;SDS011;68699;48.220;16.358;2024-03-07T07:30:11;11.67;;;8.87;;
79261;SDS011;68699;48.220;16.358;2024-03-07T07:32:38;10.57;;;8.90;;
79261;SDS011;68699;48.220;16.358;2024-03-07T07:35:05;9.53;;;8.53;;
79261;SDS011;68699;48.220;16.358;2024-03-07T07:37:39;9.80;;;8.67;;
79261;SDS011;68699;48.220;16.358;2024-03-07T07:40:06;11.00;;;9.00;;
79261;SDS011;68699;48.220;16.358;2024-03-07T07:42:37;11.07;;;9.10;;
79261;SDS011;68699;48.220;16.358;2024-03-07T07:45:04;10.37;;;9.27;;
79261;SDS011;68699;48.220;16.358;2024-03-07T07:47:31;11.47;;;8.57;;
79261;SDS011;68699;48.220;16.358;2024-03-07T07:49:58;9.80;;;8.43;;
79261;SDS011;68699;48.220;16.358;2024-03-07T07:52:24;9.33;;;7.37;;
79261;SDS011;68699;48.220;16.358;2024-03-07T07:54:50;11.47;;;8.70;;
79261;SDS011;68699;48.220;16.358;2024-03-07T07:57:16;9.57;;;8.33;;
79261;SDS011;68699;48.220;16.358;2024-03-07T07:59:42;9.10;;;8.20;;
79261;SDS011;68699;48.220;16.358;2024-03-07T08:02:09;10.53;;;9.03;;
79261;SDS011;68699;48.220;16.358;2024-03-07T08:04:36;9.90;;;8.90;;
79261;SDS011;68699;48.220;16.358;2024-03-07T08:07:02;9.63;;;8.47;;
79261;SDS011;68699;48.220;16.358;2024-03-07T08:09:30;10.70;;;8.30;;
79261;SDS011;68699;48.220;16.358;2024-03-07T08:11:56;9.90;;;8.43;;
79261;SDS011;68699;48.220;16.358;2024-03-07T08:14:22;9.63;;;8.63;;
79261;SDS011;68699;48.220;16.358;2024-03-07T08:16:48;10.43;;;8.13;;
79261;SDS011;68699;48.220;16.358;2024-03-07T08:19:16;10.03;;;8.17;;
79261;SDS011;68699;48.220;16.358;2024-03-07T08:21:42;9.47;;;8.47;;
79261;SDS011;68699;48.220;16.358;2024-03-07T08:24:08;9.13;;;7.90;;
79261;SDS011;68699;48.220;16.358;2024-03-07T08:26:36;9.67;;;8.67;;
79261;SDS011;68699;48.220;16.358;2024-03-07T08:29:02;10.53;;;8.13;;
79261;SDS011;68699;48.220;16.358;2024-03-07T08:31:30;9.30;;;8.17;;
79261;SDS011;68699;48.220;16.358;2024-03-07T08:33:56;8.77;;;7.87;;
79261;SDS011;68699;48.220;16.358;2024-03-07T08:36:22;8.83;;;7.73;;
79261;SDS011;68699;48.220;16.358;2024-03-07T08:38:48;8.67;;;7.77;;
79261;SDS011;68699;48.220;16.358;2024-03-07T08:41:17;8.60;;;7.67;;
79261;SDS011;68699;48.220;16.358;2024-03-07T08:43:43;9.47;;;7.63;;
79261;SDS011;68699;48.220;16.358;2024-03-07T08:46:09;9.63;;;8.07;;
79261;SDS011;68699;48.220;16.358;2024-03-07T08:48:36;9.53;;;8.07;;
79261;SDS011;68699;48.220;16.358;2024-03-07T08:51:03;9.57;;;7.77;;
79261;SDS011;68699;48.220;16.358;2024-03-07T08:53:29;8.77;;;7.67;;
79261;SDS011;68699;48.220;16.358;2024-03-07T08:55:55;8.77;;;7.83;;
79261;SDS011;68699;48.220;16.358;2024-03-07T08:58:23;9.47;;;8.27;;
79261;SDS011;68699;48.220;16.358;2024-03-07T09:00:49;9.50;;;8.37;;
79261;SDS011;68699;48.220;16.358;2024-03-07T09:03:17;10.33;;;7.87;;
79261;SDS011;68699;48.220;16.358;2024-03-07T09:05:43;9.17;;;8.13;;
79261;SDS011;68699;48.220;16.358;2024-03-07T09:08:10;9.60;;;7.93;;
79261;SDS011;68699;48.220;16.358;2024-03-07T09:10:37;10.87;;;8.80;;
79261;SDS011;68699;48.220;16.358;2024-03-07T09:13:06;10.10;;;8.70;;
79261;SDS011;68699;48.220;16.358;2024-03-07T09:15:32;11.23;;;8.87;;
79261;SDS011;68699;48.220;16.358;2024-03-07T09:17:59;10.97;;;9.20;;
79261;SDS011;68699;48.220;16.358;2024-03-07T09:20:28;11.70;;;9.40;;
79261;SDS011;68699;48.220;16.358;2024-03-07T09:22:56;12.40;;;9.17;;
79261;SDS011;68699;48.220;16.358;2024-03-07T09:25:25;11.10;;;9.50;;
79261;SDS011;68699;48.220;16.358;2024-03-07T09:27:52;11.83;;;8.83;;
79261;SDS011;68699;48.220;16.358;2024-03-07T09:30:19;11.30;;;8.00;;
79261;SDS011;68699;48.220;16.358;2024-03-07T09:32:49;9.90;;;7.90;;
79261;SDS011;68699;48.220;16.358;2024-03-07T09:35:16;10.50;;;8.70;;
79261;SDS011;68699;48.220;16.358;2024-03-07T09:37:43;9.87;;;8.70;;
79261;SDS011;68699;48.220;16.358;2024-03-07T09:40:10;10.20;;;8.43;;
79261;SDS011;68699;48.220;16.358;2024-03-07T09:42:41;10.70;;;8.97;;
79261;SDS011;68699;48.220;16.358;2024-03-07T09:45:09;11.37;;;8.80;;
79261;SDS011;68699;48.220;16.358;2024-03-07T09:47:38;9.80;;;8.47;;
79261;SDS011;68699;48.220;16.358;2024-03-07T09:50:04;10.63;;;9.00;;
79261;SDS011;68699;48.220;16.358;2024-03-07T09:52:33;12.70;;;8.90;;
79261;SDS011;68699;48.220;16.358;2024-03-07T09:55:00;11.63;;;10.00;;
79261;SDS011;68699;48.220;16.358;2024-03-07T09:57:27;13.10;;;9.60;;
79261;SDS011;68699;48.220;16.358;2024-03-07T09:59:55;11.47;;;9.33;;
79261;SDS011;68699;48.220;16.358;2024-03-07T10:02:22;12.37;;;10.23;;
79261;SDS011;68699;48.220;16.358;2024-03-07T10:04:50;13.30;;;10.33;;
79261;SDS011;68699;48.220;16.358;2024-03-07T10:07:17;12.77;;;9.90;;
79261;SDS011;68699;48.220;16.358;2024-03-07T10:09:44;12.33;;;9.90;;
79261;SDS011;68699;48.220;16.358;2024-03-07T10:12:10;11.53;;;9.97;;
79261;SDS011;68699;48.220;16.358;2024-03-07T10:14:49;13.57;;;11.10;;
79261;SDS011;68699;48.220;16.358;2024-03-07T10:17:16;14.33;;;11.70;;
79261;SDS011;68699;48.220;16.358;2024-03-07T10:19:46;15.20;;;12.00;;
79261;SDS011;68699;48.220;16.358;2024-03-07T10:22:14;15.03;;;11.93;;
79261;SDS011;68699;48.220;16.358;2024-03-07T10:24:48;14.20;;;12.67;;
79261;SDS011;68699;48.220;16.358;2024-03-07T10:27:17;15.53;;;12.47;;
79261;SDS011;68699;48.220;16.358;2024-03-07T10:29:45;15.50;;;12.50;;
79261;SDS011;68699;48.220;16.358;2024-03-07T10:32:12;15.23;;;12.00;;
79261;SDS011;68699;48.220;16.358;2024-03-07T10:34:38;14.00;;;11.67;;
79261;SDS011;68699;48.220;16.358;2024-03-07T10:37:05;15.27;;;11.60;;
79261;SDS011;68699;48.220;16.358;2024-03-07T10:39:34;14.20;;;11.70;;
79261;SDS011;68699;48.220;16.358;2024-03-07T10:42:00;16.20;;;12.73;;
79261;SDS011;68699;48.220;16.358;2024-03-07T10:44:30;14.63;;;12.80;;
79261;SDS011;68699;48.220;16.358;2024-03-07T10:46:57;15.43;;;11.93;;
79261;SDS011;68699;48.220;16.358;2024-03-07T10:49:28;16.37;;;12.20;;
79261;SDS011;68699;48.220;16.358;2024-03-07T10:52:08;13.67;;;11.63;;
79261;SDS011;68699;48.220;16.358;2024-03-07T10:57:20;14.77;;;12.00;;
79261;SDS011;68699;48.220;16.358;2024-03-07T10:59:50;14.40;;;12.63;;
79261;SDS011;68699;48.220;16.358;2024-03-07T11:04:52;16.73;;;12.80;;
79261;SDS011;68699;48.220;16.358;2024-03-07T11:07:22;16.70;;;12.90;;
79261;SDS011;68699;48.220;16.358;2024-03-07T11:09:48;14.70;;;12.10;;
79261;SDS011;68699;48.220;16.358;2024-03-07T11:12:18;16.87;;;13.40;;
79261;SDS011;68699;48.220;16.358;2024-03-07T11:14:45;17.17;;;13.03;;
79261;SDS011;68699;48.220;16.358;2024-03-07T11:17:13;15.27;;;12.70;;
79261;SDS011;68699;48.220;16.358;2024-03-07T11:19:40;15.30;;;12.07;;
79261;SDS011;68699;48.220;16.358;2024-03-07T11:22:06;15.57;;;13.03;;
79261;SDS011;68699;48.220;16.358;2024-03-07T11:24:42;16.90;;;13.37;;
79261;SDS011;68699;48.220;16.358;2024-03-07T11:27:10;18.13;;;13.50;;
79261;SDS011;68699;48.220;16.358;2024-03-07T11:29:49;18.90;;;14.07;;
79261;SDS011;68699;48.220;16.358;2024-03-07T11:32:19;17.70;;;13.47;;
79261;SDS011;68699;48.220;16.358;2024-03-07T11:34:48;18.10;;;14.33;;
79261;SDS011;68699;48.220;16.358;2024-03-07T11:37:18;19.07;;;14.10;;
79261;SDS011;68699;48.220;16.358;2024-03-07T11:39:48;18.77;;;14.53;;
79261;SDS011;68699;48.220;16.358;2024-03-07T11:42:27;17.57;;;13.67;;
79261;SDS011;68699;48.220;16.358;2024-03-07T11:44:56;19.07;;;15.10;;
79261;SDS011;68699;48.220;16.358;2024-03-07T11:47:26;19.97;;;14.30;;
79261;SDS011;68699;48.220;16.358;2024-03-07T11:49:55;21.80;;;15.37;;
79261;SDS011;68699;48.220;16.358;2024-03-07T11:52:23;22.23;;;16.17;;
79261;SDS011;68699;48.220;16.358;2024-03-07T11:54:49;20.80;;;15.73;;
79261;SDS011;68699;48.220;16.358;2024-03-07T11:57:19;18.60;;;14.63;;
79261;SDS011;68699;48.220;16.358;2024-03-07T11:59:51;20.13;;;14.93;;
79261;SDS011;68699;48.220;16.358;2024-03-07T12:02:18;21.03;;;15.53;;
79261;SDS011;68699;48.220;16.358;2024-03-07T12:04:48;20.87;;;15.97;;
79261;SDS011;68699;48.220;16.358;2024-03-07T12:07:18;20.93;;;15.47;;
79261;SDS011;68699;48.220;16.358;2024-03-07T12:09:48;19.67;;;14.57;;
79261;SDS011;68699;48.220;16.358;2024-03-07T12:12:21;20.27;;;15.57;;
79261;SDS011;68699;48.220;16.358;2024-03-07T12:14:47;18.87;;;15.40;;
79261;SDS011;68699;48.220;16.358;2024-03-07T12:17:16;18.60;;;14.70;;
79261;SDS011;68699;48.220;16.358;2024-03-07T12:19:42;19.20;;;15.60;;
79261;SDS011;68699;48.220;16.358;2024-03-07T12:22:09;18.90;;;15.10;;
79261;SDS011;68699;48.220;16.358;2024-03-07T12:24:47;20.63;;;15.83;;
79261;SDS011;68699;48.220;16.358;2024-03-07T12:27:15;19.77;;;15.77;;
79261;SDS011;68699;48.220;16.358;2024-03-07T12:29:42;20.00;;;15.53;;
79261;SDS011;68699;48.220;16.358;2024-03-07T12:32:09;18.97;;;15.30;;
79261;SDS011;68699;48.220;16.358;2024-03-07T12:34:42;20.87;;;15.93;;
79261;SDS011;68699;48.220;16.358;2024-03-07T12:37:12;19.97;;;14.97;;
79261;SDS011;68699;48.220;16.358;2024-03-07T12:39:42;20.83;;;15.47;;
79261;SDS011;68699;48.220;16.358;2024-03-07T12:42:11;21.67;;;16.23;;
79261;SDS011;68699;48.220;16.358;2024-03-07T12:44:42;19.70;;;15.03;;
79261;SDS011;68699;48.220;16.358;2024-03-07T12:47:12;19.80;;;15.30;;
79261;SDS011;68699;48.220;16.358;2024-03-07T12:49:44;22.20;;;16.37;;
79261;SDS011;68699;48.220;16.358;2024-03-07T12:52:14;19.33;;;15.47;;
79261;SDS011;68699;48.220;16.358;2024-03-07T12:54:40;20.57;;;15.67;;
79261;SDS011;68699;48.220;16.358;2024-03-07T12:57:07;19.07;;;15.60;;
79261;SDS011;68699;48.220;16.358;2024-03-07T12:59:39;20.13;;;15.70;;
79261;SDS011;68699;48.220;16.358;2024-03-07T13:02:09;20.23;;;15.70;;
79261;SDS011;68699;48.220;16.358;2024-03-07T13:04:35;19.37;;;16.17;;
79261;SDS011;68699;48.220;16.358;2024-03-07T13:07:03;19.10;;;15.23;;
79261;SDS011;68699;48.220;16.358;2024-03-07T13:09:32;20.50;;;15.83;;
79261;SDS011;68699;48.220;16.358;2024-03-07T13:11:58;20.73;;;16.10;;
79261;SDS011;68699;48.220;16.358;2024-03-07T13:14:34;19.80;;;15.30;;
79261;SDS011;68699;48.220;16.358;2024-03-07T13:17:03;19.67;;;15.53;;
79261;SDS011;68699;48.220;16.358;2024-03-07T13:19:30;20.10;;;15.40;;
79261;SDS011;68699;48.220;16.358;2024-03-07T13:21:56;20.87;;;15.53;;
79261;SDS011;68699;48.220;16.358;2024-03-07T13:24:22;20.97;;;16.50;;
79261;SDS011;68699;48.220;16.358;2024-03-07T13:26:49;20.90;;;15.53;;
79261;SDS011;68699;48.220;16.358;2024-03-07T13:29:16;20.37;;;16.13;;
79261;SDS011;68699;48.220;16.358;2024-03-07T13:31:43;20.03;;;16.10;;
79261;SDS011;68699;48.220;16.358;2024-03-07T13:34:10;19.43;;;14.87;;
79261;SDS011;68699;48.220;16.358;2024-03-07T13:36:41;20.87;;;15.93;;
79261;SDS011;68699;48.220;16.358;2024-03-07T13:39:08;21.20;;;15.73;;
79261;SDS011;68699;48.220;16.358;2024-03-07T13:41:37;20.47;;;15.30;;
79261;SDS011;68699;48.220;16.358;2024-03-07T13:44:04;18.43;;;14.73;;
79261;SDS011;68699;48.220;16.358;2024-03-07T13:46:30;19.13;;;15.10;;
79261;SDS011;68699;48.220;16.358;2024-03-07T13:48:59;20.03;;;15.37;;
79261;SDS011;68699;48.220;16.358;2024-03-07T13:51:32;19.73;;;15.13;;
79261;SDS011;68699;48.220;16.358;2024-03-07T13:54:00;19.93;;;15.33;;
79261;SDS011;68699;48.220;16.358;2024-03-07T13:57:01;18.33;;;14.80;;
79261;SDS011;68699;48.220;16.358;2024-03-07T14:13:17;18.80;;;14.87;;
79261;SDS011;68699;48.220;16.358;2024-03-07T14:27:01;18.93;;;14.40;;
79261;SDS011;68699;48.220;16.358;2024-03-07T14:32:23;18.27;;;13.87;;
79261;SDS011;68699;48.220;16.358;2024-03-07T14:37:38;18.47;;;14.47;;
79261;SDS011;68699;48.220;16.358;2024-03-07T14:40:12;17.40;;;14.50;;
79261;SDS011;68699;48.220;16.358;2024-03-07T14:42:41;19.60;;;14.73;;
79261;SDS011;68699;48.220;16.358;2024-03-07T14:45:09;18.23;;;14.07;;
79261;SDS011;68699;48.220;16.358;2024-03-07T14:47:38;18.40;;;14.10;;
79261;SDS011;68699;48.220;16.358;2024-03-07T14:50:04;19.87;;;14.30;;
79261;SDS011;68699;48.220;16.358;2024-03-07T14:52:35;18.67;;;14.33;;
79261;SDS011;68699;48.220;16.358;2024-03-07T14:55:06;19.30;;;14.90;;
79261;SDS011;68699;48.220;16.358;2024-03-07T14:57:32;19.97;;;15.80;;